17CL weather

Las Trancas Airport
Davenport, California, United States

Public forecast

Using degrees Fahrenheit for public forecast. Weather courtesy of forecast.io.

Closest aviation weather report (METAR) to Las Trancas Airport

Closest report is Moffett Federal Airfield, 22.4 nm (41.6 km) NNE. Retrieved 2019/10/14 11:56 UTC (12 minutes ago):

KNUQ 141156Z A2991 RMK AO2 SLP132 57003 PWINO

Closest aviation forecast (TAF) to Las Trancas Airport

Closest forecast is Norman Y. Mineta San Jose International Airport, 23.3 nm (43.2 km) NE. Retrieved 2019/10/14 12:22 UTC (0 seconds ago):

TAF KSJC 141120Z 1412/1512 VRB03KT P6SM SKC FM142000 31009KT P6SM SKC FM150600 VRB03KT P6SM SKC